Time,TemperatureF,DewpointF,PressureIn,WindDirection,WindDirectionDegrees,WindSpeedMPH,WindSpeedGustMPH,Humidity,HourlyPrecipIn,Conditions,Clouds,dailyrainin,SoftwareType,DateUTC
2013-01-14 00:02:00,17.0,13.0,-100.00,North,5,0.0,0.0,85,-99.99,,,-99.99,,2013-01-14 08:02:00,
2013-01-14 00:12:00,17.0,13.0,-100.00,SE,125,0.0,1.0,86,-99.99,,,-99.99,,2013-01-14 08:12:00,
2013-01-14 00:22:00,17.0,13.0,-100.00,SE,125,0.0,0.0,86,-99.99,,,-99.99,,2013-01-14 08:22:00,
2013-01-14 00:32:00,17.0,13.0,-100.00,East,95,1.0,3.0,86,-99.99,,,-99.99,,2013-01-14 08:32:00,
2013-01-14 00:52:00,17.0,13.0,-100.00,ESE,120,1.0,1.0,86,-99.99,,,-99.99,,2013-01-14 08:52:00,
2013-01-14 01:02:00,17.0,13.0,-100.00,ESE,120,1.0,1.0,86,-99.99,,,-99.99,,2013-01-14 09:02:00,
2013-01-14 01:12:00,17.0,13.0,-100.00,ESE,120,1.0,2.0,86,-99.99,,,-99.99,,2013-01-14 09:12:00,
2013-01-14 01:22:00,17.0,13.0,-100.00,East,90,0.0,2.0,86,-99.99,,,-99.99,,2013-01-14 09:22:00,
2013-01-14 01:33:00,17.0,13.0,-100.00,East,90,0.0,2.0,86,-99.99,,,-99.99,,2013-01-14 09:33:00,
2013-01-14 01:52:00,16.0,13.0,-100.00,ESE,120,0.0,1.0,86,-99.99,,,-99.99,,2013-01-14 09:52:00,
2013-01-14 02:02:00,16.0,13.0,-100.00,ESE,120,0.0,1.0,86,-99.99,,,-99.99,,2013-01-14 10:02:00,
2013-01-14 02:12:00,16.0,13.0,-100.00,NE,45,0.0,0.0,86,-99.99,,,-99.99,,2013-01-14 10:12:00,
2013-01-14 02:22:00,16.0,13.0,-100.00,East,100,0.0,2.0,86,-99.99,,,-99.99,,2013-01-14 10:22:00,
2013-01-14 02:32:00,16.0,12.0,-100.00,ESE,115,1.0,4.0,86,-99.99,,,-99.99,,2013-01-14 10:32:00,
2013-01-14 02:52:00,16.0,12.0,-100.00,ESE,110,0.0,1.0,86,-99.99,,,-99.99,,2013-01-14 10:52:00,
2013-01-14 03:02:00,16.0,12.0,-100.00,ESE,110,0.0,1.0,86,-99.99,,,-99.99,,2013-01-14 11:02:00,
2013-01-14 03:12:00,15.0,12.0,-100.00,ENE,65,0.0,1.0,86,-99.99,,,-99.99,,2013-01-14 11:12:00,
2013-01-14 03:22:00,15.0,12.0,-100.00,NE,55,0.0,2.0,86,-99.99,,,-99.99,,2013-01-14 11:22:00,
2013-01-14 03:32:00,15.0,11.0,-100.00,ESE,115,0.0,1.0,86,-99.99,,,-99.99,,2013-01-14 11:32:00,
2013-01-14 03:53:00,15.0,11.0,-100.00,ESE,115,1.0,2.0,86,-99.99,,,-99.99,,2013-01-14 11:53:00,
2013-01-14 04:02:00,15.0,11.0,-100.00,ESE,115,1.0,2.0,86,-99.99,,,-99.99,,2013-01-14 12:02:00,
2013-01-14 04:12:00,15.0,11.0,-100.00,ESE,120,0.0,1.0,86,-99.99,,,-99.99,,2013-01-14 12:12:00,
2013-01-14 04:22:00,14.0,11.0,-100.00,East,80,0.0,1.0,86,-99.99,,,-99.99,,2013-01-14 12:22:00,
2013-01-14 04:33:00,15.0,11.0,-100.00,SE,135,1.0,3.0,86,-99.99,,,-99.99,,2013-01-14 12:33:00,
2013-01-14 04:52:00,14.0,11.0,-100.00,SE,145,0.0,1.0,86,-99.99,,,-99.99,,2013-01-14 12:52:00,
2013-01-14 05:03:00,14.0,11.0,-100.00,SE,145,0.0,1.0,86,-99.99,,,-99.99,,2013-01-14 13:03:00,
2013-01-14 05:12:00,14.0,10.0,-100.00,SE,125,0.0,1.0,86,-99.99,,,-99.99,,2013-01-14 13:12:00,
2013-01-14 05:22:00,14.0,10.0,-100.00,ESE,115,0.0,2.0,86,-99.99,,,-99.99,,2013-01-14 13:22:00,
2013-01-14 05:33:00,13.0,10.0,-100.00,NW,305,0.0,2.0,86,-99.99,,,-99.99,,2013-01-14 13:33:00,
2013-01-14 05:52:00,13.0,10.0,-100.00,SE,130,0.0,2.0,86,-99.99,,,-99.99,,2013-01-14 13:52:00,
2013-01-14 06:02:00,13.0,10.0,-100.00,SE,130,0.0,2.0,86,-99.99,,,-99.99,,2013-01-14 14:02:00,
2013-01-14 06:12:00,13.0,10.0,-100.00,ESE,115,0.0,1.0,86,-99.99,,,-99.99,,2013-01-14 14:12:00,
2013-01-14 06:22:00,13.0,10.0,-100.00,ESE,115,1.0,2.0,86,-99.99,,,-99.99,,2013-01-14 14:22:00,
2013-01-14 06:33:00,13.0,10.0,-100.00,East,95,0.0,2.0,86,-99.99,,,-99.99,,2013-01-14 14:33:00,
2013-01-14 06:52:00,13.0,10.0,-100.00,SE,125,0.0,1.0,86,-99.99,,,-99.99,,2013-01-14 14:52:00,
2013-01-14 07:02:00,13.0,10.0,-100.00,SE,125,0.0,1.0,86,-99.99,,,-99.99,,2013-01-14 15:02:00,
2013-01-14 07:12:00,13.0,10.0,-100.00,SE,130,0.0,2.0,86,-99.99,,,-99.99,,2013-01-14 15:12:00,
2013-01-14 07:23:00,13.0,10.0,-100.00,ESE,120,0.0,1.0,86,-99.99,,,-99.99,,2013-01-14 15:23:00,
2013-01-14 07:33:00,13.0,10.0,-100.00,North,0,0.0,1.0,86,-99.99,,,-99.99,,2013-01-14 15:33:00,
2013-01-14 07:53:00,13.0,9.0,-100.00,SSE,165,0.0,1.0,86,-99.99,,,-99.99,,2013-01-14 15:53:00,
2013-01-14 08:02:00,13.0,9.0,-100.00,SSE,165,0.0,1.0,86,-99.99,,,-99.99,,2013-01-14 16:02:00,
2013-01-14 08:12:00,13.0,9.0,-100.00,South,185,0.0,2.0,86,-99.99,,,-99.99,,2013-01-14 16:12:00,
2013-01-14 08:23:00,13.0,9.0,-100.00,ESE,110,1.0,2.0,86,-99.99,,,-99.99,,2013-01-14 16:23:00,
2013-01-14 08:33:00,13.0,10.0,-100.00,East,90,0.0,0.0,86,-99.99,,,-99.99,,2013-01-14 16:33:00,
2013-01-14 08:52:00,13.0,10.0,-100.00,East,90,0.0,1.0,86,-99.99,,,-99.99,,2013-01-14 16:52:00,
2013-01-14 09:02:00,13.0,10.0,-100.00,East,90,0.0,1.0,86,-99.99,,,-99.99,,2013-01-14 17:02:00,
2013-01-14 09:12:00,14.0,10.0,-100.00,SE,130,1.0,2.0,86,-99.99,,,-99.99,,2013-01-14 17:12:00,
2013-01-14 09:22:00,14.0,11.0,-100.00,SE,130,1.0,2.0,86,-99.99,,,-99.99,,2013-01-14 17:22:00,
2013-01-14 09:33:00,15.0,11.0,-100.00,SE,135,0.0,0.0,86,-99.99,,,-99.99,,2013-01-14 17:33:00,
2013-01-14 09:53:00,15.0,12.0,-100.00,ESE,105,1.0,2.0,86,-99.99,,,-99.99,,2013-01-14 17:53:00,
2013-01-14 10:02:00,15.0,12.0,-100.00,ESE,105,1.0,2.0,86,-99.99,,,-99.99,,2013-01-14 18:02:00,
2013-01-14 10:12:00,16.0,13.0,-100.00,ESE,110,1.0,1.0,86,-99.99,,,-99.99,,2013-01-14 18:12:00,
2013-01-14 10:22:00,18.0,14.0,-100.00,ESE,120,0.0,2.0,86,-99.99,,,-99.99,,2013-01-14 18:22:00,
2013-01-14 10:33:00,20.0,17.0,-100.00,SE,130,2.0,2.0,85,-99.99,,,-99.99,,2013-01-14 18:33:00,
2013-01-14 11:02:00,24.0,19.0,-100.00,SSE,150,1.0,2.0,81,-99.99,,,-99.99,,2013-01-14 19:02:00,
2013-01-14 11:12:00,27.0,19.0,-100.00,SE,125,0.0,1.0,72,-99.99,,,-99.99,,2013-01-14 19:12:00,
2013-01-14 11:22:00,30.0,18.0,-100.00,SSE,155,1.0,1.0,62,-99.99,,,-99.99,,2013-01-14 19:22:00,
2013-01-14 11:33:00,30.0,15.0,-100.00,SSE,150,1.0,2.0,54,-99.99,,,-99.99,,2013-01-14 19:33:00,
2013-01-14 11:42:00,30.0,15.0,-100.00,SSE,150,1.0,2.0,54,-99.99,,,-99.99,,2013-01-14 19:42:00,
2013-01-14 11:52:00,30.0,14.0,-100.00,SE,140,1.0,2.0,52,-99.99,,,-99.99,,2013-01-14 19:52:00,
2013-01-14 12:03:00,30.0,14.0,-100.00,SE,140,1.0,2.0,52,-99.99,,,-99.99,,2013-01-14 20:03:00,
2013-01-14 12:12:00,33.0,15.0,-100.00,South,180,0.0,1.0,48,-99.99,,,-99.99,,2013-01-14 20:12:00,
2013-01-14 12:22:00,33.0,13.0,-100.00,South,180,0.0,2.0,43,-99.99,,,-99.99,,2013-01-14 20:22:00,
2013-01-14 12:33:00,35.0,13.0,-100.00,WNW,285,2.0,4.0,40,-99.99,,,-99.99,,2013-01-14 20:33:00,
2013-01-14 12:42:00,35.0,13.0,-100.00,WNW,285,2.0,4.0,40,-99.99,,,-99.99,,2013-01-14 20:42:00,
2013-01-14 12:53:00,35.0,13.0,-100.00,WNW,285,2.0,4.0,40,-99.99,,,-99.99,,2013-01-14 20:53:00,
2013-01-14 13:02:00,35.0,13.0,-100.00,WNW,285,2.0,4.0,40,-99.99,,,-99.99,,2013-01-14 21:02:00,
2013-01-14 13:12:00,39.0,13.0,-100.00,WNW,285,4.0,7.0,33,-99.99,,,-99.99,,2013-01-14 21:12:00,
2013-01-14 13:22:00,37.0,12.0,-100.00,WNW,285,1.0,4.0,35,-99.99,,,-99.99,,2013-01-14 21:22:00,
2013-01-14 13:33:00,37.0,13.0,-100.00,West,280,2.0,4.0,36,-99.99,,,-99.99,,2013-01-14 21:33:00,
2013-01-14 13:42:00,37.0,13.0,-100.00,West,280,2.0,4.0,36,-99.99,,,-99.99,,2013-01-14 21:42:00,
2013-01-14 13:53:00,37.0,13.0,-100.00,West,280,2.0,4.0,36,-99.99,,,-99.99,,2013-01-14 21:53:00,
2013-01-14 14:02:00,37.0,13.0,-100.00,West,280,2.0,4.0,36,-99.99,,,-99.99,,2013-01-14 22:02:00,
2013-01-14 14:12:00,38.0,13.0,-100.00,West,280,1.0,4.0,34,-99.99,,,-99.99,,2013-01-14 22:12:00,
2013-01-14 14:23:00,38.0,13.0,-100.00,WNW,285,2.0,5.0,36,-99.99,,,-99.99,,2013-01-14 22:23:00,
2013-01-14 14:32:00,37.0,12.0,-100.00,WNW,295,2.0,6.0,35,-99.99,,,-99.99,,2013-01-14 22:32:00,
2013-01-14 14:42:00,37.0,12.0,-100.00,WNW,295,2.0,6.0,35,-99.99,,,-99.99,,2013-01-14 22:42:00,
2013-01-14 14:52:00,38.0,13.0,-100.00,SSE,165,0.0,6.0,35,-99.99,,,-99.99,,2013-01-14 22:52:00,
2013-01-14 15:02:00,38.0,13.0,-100.00,SSE,165,0.0,6.0,35,-99.99,,,-99.99,,2013-01-14 23:02:00,
2013-01-14 15:12:00,35.0,14.0,-100.00,SSW,210,1.0,3.0,41,-99.99,,,-99.99,,2013-01-14 23:12:00,
2013-01-14 15:22:00,33.0,14.0,-100.00,SSE,155,1.0,2.0,45,-99.99,,,-99.99,,2013-01-14 23:22:00,
2013-01-14 15:32:00,33.0,16.0,-100.00,South,185,0.0,2.0,49,-99.99,,,-99.99,,2013-01-14 23:32:00,
2013-01-14 15:52:00,32.0,17.0,-100.00,SE,135,3.0,4.0,54,-99.99,,,-99.99,,2013-01-14 23:52:00,
2013-01-14 16:02:00,32.0,17.0,-100.00,SE,135,3.0,4.0,54,-99.99,,,-99.99,,2013-01-15 00:02:00,
2013-01-14 16:12:00,32.0,18.0,-100.00,SE,125,2.0,4.0,57,-99.99,,,-99.99,,2013-01-15 00:12:00,
2013-01-14 16:22:00,31.0,20.0,-100.00,ESE,115,1.0,3.0,62,-99.99,,,-99.99,,2013-01-15 00:22:00,
2013-01-14 16:32:00,31.0,21.0,-100.00,ESE,120,1.0,4.0,66,-99.99,,,-99.99,,2013-01-15 00:32:00,
2013-01-14 16:52:00,31.0,22.0,-100.00,ESE,105,0.0,3.0,69,-99.99,,,-99.99,,2013-01-15 00:52:00,
2013-01-14 17:02:00,31.0,22.0,-100.00,ESE,105,0.0,3.0,69,-99.99,,,-99.99,,2013-01-15 01:02:00,
2013-01-14 17:12:00,30.0,22.0,-100.00,ESE,115,2.0,3.0,71,-99.99,,,-99.99,,2013-01-15 01:12:00,
2013-01-14 17:22:00,30.0,22.0,-100.00,SE,140,0.0,4.0,72,-99.99,,,-99.99,,2013-01-15 01:22:00,
2013-01-14 17:32:00,29.0,22.0,-100.00,ESE,105,1.0,3.0,73,-99.99,,,-99.99,,2013-01-15 01:32:00,
2013-01-14 17:52:00,29.0,22.0,-100.00,SE,130,0.0,2.0,74,-99.99,,,-99.99,,2013-01-15 01:52:00,
2013-01-14 18:02:00,29.0,22.0,-100.00,SE,130,0.0,2.0,74,-99.99,,,-99.99,,2013-01-15 02:02:00,
2013-01-14 18:12:00,28.0,21.0,-100.00,SE,125,0.0,2.0,75,-99.99,,,-99.99,,2013-01-15 02:12:00,
2013-01-14 18:22:00,28.0,21.0,-100.00,SE,125,0.0,1.0,76,-99.99,,,-99.99,,2013-01-15 02:22:00,
2013-01-14 18:32:00,27.0,21.0,-100.00,ESE,115,0.0,2.0,76,-99.99,,,-99.99,,2013-01-15 02:32:00,
2013-01-14 18:52:00,27.0,21.0,-100.00,SE,125,1.0,2.0,77,-99.99,,,-99.99,,2013-01-15 02:52:00,
2013-01-14 19:02:00,27.0,21.0,-100.00,SE,125,1.0,2.0,77,-99.99,,,-99.99,,2013-01-15 03:02:00,
2013-01-14 19:12:00,27.0,20.0,-100.00,ESE,120,0.0,1.0,77,-99.99,,,-99.99,,2013-01-15 03:12:00,
2013-01-14 19:22:00,26.0,21.0,-100.00,SE,130,0.0,2.0,78,-99.99,,,-99.99,,2013-01-15 03:22:00,
2013-01-14 19:32:00,26.0,20.0,-100.00,SE,140,0.0,1.0,79,-99.99,,,-99.99,,2013-01-15 03:32:00,
2013-01-14 19:52:00,26.0,20.0,-100.00,SE,140,0.0,1.0,79,-99.99,,,-99.99,,2013-01-15 03:52:00,
2013-01-14 20:12:00,25.0,20.0,-100.00,SE,130,0.0,0.0,80,-99.99,,,-99.99,,2013-01-15 04:12:00,
2013-01-14 20:22:00,25.0,20.0,-100.00,SE,130,0.0,2.0,81,-99.99,,,-99.99,,2013-01-15 04:22:00,
2013-01-14 20:32:00,25.0,20.0,-100.00,SE,140,0.0,1.0,81,-99.99,,,-99.99,,2013-01-15 04:32:00,
2013-01-14 20:42:00,25.0,20.0,-100.00,SE,140,0.0,1.0,81,-99.99,,,-99.99,,2013-01-15 04:42:00,
2013-01-14 20:52:00,24.0,20.0,-100.00,SE,130,1.0,2.0,82,-99.99,,,-99.99,,2013-01-15 04:52:00,
2013-01-14 21:03:00,24.0,20.0,-100.00,SE,130,1.0,2.0,82,-99.99,,,-99.99,,2013-01-15 05:03:00,
2013-01-14 21:12:00,24.0,20.0,-100.00,ESE,110,0.0,2.0,83,-99.99,,,-99.99,,2013-01-15 05:12:00,
2013-01-14 21:22:00,24.0,20.0,-100.00,SE,135,0.0,1.0,84,-99.99,,,-99.99,,2013-01-15 05:22:00,
2013-01-14 21:33:00,24.0,19.0,-100.00,ESE,115,0.0,1.0,84,-99.99,,,-99.99,,2013-01-15 05:33:00,
2013-01-14 21:42:00,24.0,19.0,-100.00,ESE,115,0.0,1.0,84,-99.99,,,-99.99,,2013-01-15 05:42:00,
2013-01-14 21:52:00,23.0,19.0,-100.00,ESE,115,0.0,1.0,85,-99.99,,,-99.99,,2013-01-15 05:52:00,
2013-01-14 22:02:00,23.0,19.0,-100.00,ESE,115,0.0,1.0,85,-99.99,,,-99.99,,2013-01-15 06:02:00,
2013-01-14 22:12:00,23.0,19.0,-100.00,ESE,115,0.0,1.0,85,-99.99,,,-99.99,,2013-01-15 06:12:00,
2013-01-14 22:22:00,23.0,19.0,-100.00,SE,125,0.0,0.0,86,-99.99,,,-99.99,,2013-01-15 06:22:00,
2013-01-14 22:32:00,22.0,19.0,-100.00,SE,145,0.0,1.0,86,-99.99,,,-99.99,,2013-01-15 06:32:00,
2013-01-14 22:42:00,22.0,19.0,-100.00,SE,145,0.0,1.0,86,-99.99,,,-99.99,,2013-01-15 06:42:00,
2013-01-14 22:52:00,22.0,18.0,-100.00,SSE,160,0.0,1.0,86,-99.99,,,-99.99,,2013-01-15 06:52:00,
2013-01-14 23:02:00,22.0,18.0,-100.00,SSE,160,0.0,1.0,86,-99.99,,,-99.99,,2013-01-15 07:02:00,
2013-01-14 23:12:00,22.0,18.0,-100.00,SE,125,0.0,1.0,87,-99.99,,,-99.99,,2013-01-15 07:12:00,
2013-01-14 23:22:00,22.0,18.0,-100.00,SE,125,0.0,2.0,87,-99.99,,,-99.99,,2013-01-15 07:22:00,
2013-01-14 23:32:00,22.0,19.0,-100.00,ESE,115,0.0,2.0,88,-99.99,,,-99.99,,2013-01-15 07:32:00,
2013-01-14 23:42:00,22.0,19.0,-100.00,ESE,115,0.0,2.0,88,-99.99,,,-99.99,,2013-01-15 07:42:00,
2013-01-14 23:52:00,21.0,18.0,-100.00,ESE,115,0.0,0.0,88,-99.99,,,-99.99,,2013-01-15 07:52:00,